Hosho Maru — JK4910 — position and weather

sailwx.info

Track history (hours):
 
Tides and Currents Weather Stations Pressure Air Temp Water Temp Dewpoint Dewpoint Depression Visibility Wind Speed Wind Dir Waves Ship Positions

Hosho Maru

Last reported at 2017-Nov-02 18:41 UTC. Time now 2017-Nov-18 17:59 UTC.
Position N 34°51' E 139°48'.
Warning: this ship's position is 15 days out of date.

Length 41 m; draft 4 m.

Type: Tug. MMSI: 431400947.

Date/timePositionNaut miles runAvg speedWind from/ knotsBaromVisibWave heightAir tempDewpointWater temp
2017-Nov-02 18:41N 34°51' E 139°48'1 5.8
2017-Nov-02 18:26N 34°51' E 139°47'8 4.9
2017-Nov-02 16:49N 34°49' E 139°37'  
2017-Oct-31 12:46N 34°01' E 134°60'2 5.9
2017-Oct-31 12:29N 34°03' E 134°59'3 5.9
2017-Oct-31 12:00N 34°06' E 134°59'3 5.9
2017-Oct-31 11:30N 34°09' E 134°59'3 5.7
2017-Oct-31 11:00N 34°12' E 134°59'3 5.3
2017-Oct-31 10:29N 34°14' E 134°59'9 3.5
2017-Oct-31 07:55N 34°23' E 134°60'2 4.2
2017-Oct-31 07:28N 34°25' E 135°00'2 4.3
2017-Oct-31 07:00N 34°27' E 135°01'5 3.4
2017-Oct-31 05:40N 34°32' E 135°02'1 4.1
2017-Oct-31 05:30N 34°32' E 135°02'2 4.3
2017-Oct-31 05:00N 34°34' E 135°03'2 4.6
2017-Oct-31 04:30N 34°36' E 135°02'5 4.3
2017-Oct-31 03:20N 34°36' E 134°56'  
2017-Oct-24 02:01N 34°41' E 134°50'0 3.3
2017-Oct-24 02:00N 34°41' E 134°50'  
Track history (hours):
 
Tides and Currents Weather Stations Pressure Air Temp Water Temp Dewpoint Dewpoint Depression Visibility Wind Speed Wind Dir Waves Ship Positions

Hosho Maru

Last reported at 2017-Nov-02 18:41 UTC. Time now 2017-Nov-18 17:59 UTC.
Position N 34°51' E 139°48'.
Warning: this ship's position is 15 days out of date.

Length 41 m; draft 4 m.

Type: Tug. MMSI: 431400947.

Date/timePositionNaut miles runAvg speedWind from/ knotsBaromVisibWave heightAir tempDewpointWater temp
2017-Nov-02 18:41N 34°51' E 139°48'1 5.8
2017-Nov-02 18:26N 34°51' E 139°47'8 4.9
2017-Nov-02 16:49N 34°49' E 139°37'  
2017-Oct-31 12:46N 34°01' E 134°60'2 5.9
2017-Oct-31 12:29N 34°03' E 134°59'3 5.9
2017-Oct-31 12:00N 34°06' E 134°59'3 5.9
2017-Oct-31 11:30N 34°09' E 134°59'3 5.7
2017-Oct-31 11:00N 34°12' E 134°59'3 5.3
2017-Oct-31 10:29N 34°14' E 134°59'9 3.5
2017-Oct-31 07:55N 34°23' E 134°60'2 4.2
2017-Oct-31 07:28N 34°25' E 135°00'2 4.3
2017-Oct-31 07:00N 34°27' E 135°01'5 3.4
2017-Oct-31 05:40N 34°32' E 135°02'1 4.1
2017-Oct-31 05:30N 34°32' E 135°02'2 4.3
2017-Oct-31 05:00N 34°34' E 135°03'2 4.6
2017-Oct-31 04:30N 34°36' E 135°02'5 4.3
2017-Oct-31 03:20N 34°36' E 134°56'  
2017-Oct-24 02:01N 34°41' E 134°50'0 3.3
2017-Oct-24 02:00N 34°41' E 134°50'  

Dump ship's entire track history